Time;durP1;ratioP1;P1;durP2;ratioP2;P2;SDS_P1;SDS_P2;PMS_P1;PMS_P2;Temp;Humidity;BMP_temperature;BMP_pressure;BME280_temperature;BME280_humidity;BME280_pressure;Samples;Min_cycle;Max_cycle;Signal;HPM_P1;HPM_P2
2023/09/13 00:02:21;;;;;;;2.20;1.20;;;18.30;99.90;;;;;;5013601;28;20092;-71
2023/09/13 00:04:46;;;;;;;1.88;0.93;;;18.20;99.90;;;;;;5013729;28;20073;-71
2023/09/13 00:07:12;;;;;;;1.98;1.05;;;18.30;99.90;;;;;;5012296;28;20046;-73
2023/09/13 00:09:41;;;;;;;0.65;0.60;;;18.20;99.90;;;;;;5012228;28;20041;-71
2023/09/13 00:12:08;;;;;;;1.45;0.88;;;18.20;99.90;;;;;;5013432;28;20049;-71
2023/09/13 00:14:34;;;;;;;0.95;0.70;;;18.20;99.90;;;;;;5013580;28;20446;-71
2023/09/13 00:16:59;;;;;;;2.47;0.90;;;18.20;99.90;;;;;;5013370;28;20091;-71
2023/09/13 00:19:27;;;;;;;1.88;0.77;;;18.20;99.90;;;;;;5013235;28;20049;-70
2023/09/13 00:21:53;;;;;;;1.38;0.70;;;18.20;99.90;;;;;;5013417;28;20048;-72
2023/09/13 00:24:19;;;;;;;1.45;0.98;;;18.10;99.90;;;;;;5013533;28;20409;-70
2023/09/13 00:26:45;;;;;;;1.40;0.82;;;18.20;99.90;;;;;;5011927;28;20046;-70
2023/09/13 00:29:10;;;;;;;2.10;0.88;;;18.10;99.90;;;;;;5012153;28;20100;-71
2023/09/13 00:31:36;;;;;;;2.45;0.90;;;18.10;99.90;;;;;;5011874;28;20042;-71
2023/09/13 00:34:02;;;;;;;2.45;1.10;;;18.10;99.90;;;;;;5013321;28;20485;-71
2023/09/13 00:36:27;;;;;;;1.38;0.85;;;18.20;99.90;;;;;;5011892;28;20045;-71
2023/09/13 00:38:53;;;;;;;2.00;1.13;;;18.00;99.90;;;;;;5013085;28;20441;-71
2023/09/13 00:41:19;;;;;;;1.05;0.70;;;18.20;99.90;;;;;;5011807;28;20046;-71
2023/09/13 00:43:45;;;;;;;2.00;0.90;;;18.00;99.90;;;;;;5013345;28;20038;-71
2023/09/13 00:46:11;;;;;;;1.00;0.70;;;18.20;99.90;;;;;;5013183;28;20077;-71
2023/09/13 00:48:37;;;;;;;1.10;0.63;;;18.00;99.90;;;;;;5012098;28;20038;-72
2023/09/13 00:51:03;;;;;;;1.73;1.30;;;18.00;99.90;;;;;;5011724;28;20406;-71
2023/09/13 00:53:31;;;;;;;1.48;0.80;;;18.00;99.90;;;;;;5012674;28;20108;-71
2023/09/13 00:56:00;;;;;;;1.58;0.77;;;19.00;99.90;;;;;;5011933;28;20088;-71
2023/09/13 00:58:26;;;;;;;0.93;0.90;;;18.00;99.90;;;;;;5011618;28;20128;-71
2023/09/13 01:00:53;;;;;;;0.73;0.70;;;18.00;99.90;;;;;;4995326;28;20460;-73
2023/09/13 01:03:20;;;;;;;1.55;0.52;;;18.00;99.90;;;;;;5012815;28;20061;-71
2023/09/13 01:05:49;;;;;;;1.00;0.70;;;18.00;99.90;;;;;;5011656;28;20057;-71
2023/09/13 01:08:15;;;;;;;0.77;0.65;;;18.00;99.90;;;;;;5011846;28;20042;-71
2023/09/13 01:10:41;;;;;;;1.30;1.02;;;18.00;99.90;;;;;;5014426;28;20080;-71
2023/09/13 01:13:06;;;;;;;1.38;0.98;;;18.00;99.90;;;;;;5016691;28;20038;-73
2023/09/13 01:15:58;;;;;;;1.85;0.85;;;19.00;99.90;;;;;;5016475;28;20046;-73
2023/09/13 01:18:31;;;;;;;1.02;0.70;;;18.00;99.90;;;;;;5016808;28;20046;-71
2023/09/13 01:21:25;;;;;;;1.73;0.70;;;17.90;99.90;;;;;;5015597;28;20087;-71
2023/09/13 01:24:09;;;;;;;1.35;0.70;;;17.80;99.90;;;;;;5016718;28;20049;-72
2023/09/13 01:27:12;;;;;;;0.82;0.60;;;17.80;99.90;;;;;;5015217;28;20041;-65
2023/09/13 01:29:40;;;;;;;1.52;0.73;;;17.70;99.90;;;;;;5016561;28;20115;-65
2023/09/13 01:32:06;;;;;;;1.42;0.73;;;17.70;99.90;;;;;;5016206;28;20374;-65
2023/09/13 01:34:32;;;;;;;2.35;1.00;;;17.70;99.90;;;;;;5015133;28;20052;-66
2023/09/13 01:36:58;;;;;;;1.48;0.55;;;17.60;99.90;;;;;;5016391;28;20124;-65
2023/09/13 01:39:24;;;;;;;1.80;0.75;;;17.60;99.90;;;;;;5016319;28;20046;-65
2023/09/13 01:41:55;;;;;;;1.17;0.70;;;17.50;99.90;;;;;;5015959;28;20129;-65
2023/09/13 01:44:21;;;;;;;1.23;0.80;;;17.50;99.90;;;;;;5014778;28;20042;-66
2023/09/13 01:46:48;;;;;;;1.95;1.00;;;17.50;99.90;;;;;;5015827;28;20042;-66
2023/09/13 01:49:16;;;;;;;1.38;0.60;;;17.40;99.90;;;;;;5016174;28;20393;-65
2023/09/13 01:51:42;;;;;;;1.42;0.80;;;17.40;99.90;;;;;;5016120;28;20104;-66
2023/09/13 01:54:08;;;;;;;1.25;0.90;;;17.30;99.90;;;;;;5016154;28;20114;-65
2023/09/13 01:56:33;;;;;;;1.20;0.90;;;17.30;99.90;;;;;;5015869;28;20542;-65
2023/09/13 01:59:00;;;;;;;1.02;0.80;;;17.30;99.90;;;;;;5014588;28;20128;-65
2023/09/13 02:01:26;;;;;;;1.20;0.75;;;17.20;99.90;;;;;;5014602;28;20046;-65
2023/09/13 02:03:51;;;;;;;0.57;0.40;;;17.20;99.90;;;;;;5015436;28;20064;-65
2023/09/13 02:06:17;;;;;;;0.75;0.60;;;17.20;99.90;;;;;;5014185;28;20112;-65
2023/09/13 02:08:43;;;;;;;0.90;0.52;;;17.20;99.90;;;;;;4998331;28;20042;-66
2023/09/13 02:11:09;;;;;;;0.75;0.70;;;17.10;99.90;;;;;;5015758;28;20038;-65
2023/09/13 02:13:35;;;;;;;1.75;1.10;;;17.10;99.90;;;;;;5015746;28;20038;-65
2023/09/13 02:16:01;;;;;;;2.63;1.17;;;17.20;99.90;;;;;;5015729;28;20371;-66
2023/09/13 02:18:26;;;;;;;0.70;0.70;;;17.00;99.90;;;;;;4997781;28;20046;-65
2023/09/13 02:20:52;;;;;;;0.80;0.70;;;17.00;99.90;;;;;;5014095;28;20383;-65
2023/09/13 02:23:18;;;;;;;1.60;0.70;;;17.20;99.90;;;;;;4996808;28;20060;-66
2023/09/13 02:25:44;;;;;;;1.30;0.80;;;17.40;99.90;;;;;;5015472;28;20038;-66
2023/09/13 02:28:11;;;;;;;0.60;0.60;;;17.80;99.90;;;;;;5014286;28;20407;-66
2023/09/13 02:30:37;;;;;;;2.03;0.80;;;17.00;99.90;;;;;;5015227;28;20045;-65
2023/09/13 02:33:03;;;;;;;1.25;0.63;;;17.00;99.90;;;;;;4997575;28;20030;-66
2023/09/13 02:35:30;;;;;;;1.50;0.60;;;17.00;99.90;;;;;;5013984;28;20046;-66
2023/09/13 02:37:55;;;;;;;1.10;0.60;;;18.00;99.90;;;;;;5015336;28;20038;-66
2023/09/13 02:40:21;;;;;;;1.65;0.70;;;16.90;99.90;;;;;;5014932;28;20108;-66
2023/09/13 02:42:47;;;;;;;1.10;0.82;;;17.00;99.90;;;;;;5015126;28;20042;-66
2023/09/13 02:45:13;;;;;;;3.20;0.70;;;17.10;99.90;;;;;;5014843;28;20121;-66
2023/09/13 02:47:39;;;;;;;2.03;0.88;;;17.00;99.90;;;;;;4997541;28;20133;-66
2023/09/13 02:50:08;;;;;;;1.05;0.68;;;16.80;99.90;;;;;;5015149;28;20092;-66
2023/09/13 02:52:34;;;;;;;0.55;0.50;;;17.00;99.90;;;;;;5013607;28;20041;-66
2023/09/13 02:55:03;;;;;;;1.17;0.52;;;17.00;99.90;;;;;;5014669;28;20596;-66
2023/09/13 02:57:28;;;;;;;1.60;0.80;;;16.90;99.90;;;;;;5014919;28;20049;-66
2023/09/13 02:59:54;;;;;;;1.10;0.98;;;17.20;99.90;;;;;;5013356;28;20041;-66
2023/09/13 03:02:20;;;;;;;2.95;1.30;;;16.90;99.90;;;;;;5013391;28;20038;-66
2023/09/13 03:04:52;;;;;;;1.35;0.75;;;16.90;99.90;;;;;;5014776;28;20050;-66
2023/09/13 03:07:18;;;;;;;1.17;0.60;;;16.90;99.90;;;;;;5013158;28;20128;-66
2023/09/13 03:09:45;;;;;;;1.20;0.70;;;16.90;99.90;;;;;;5014401;28;20049;-66
2023/09/13 03:12:10;;;;;;;1.40;0.63;;;16.90;99.90;;;;;;5014328;28;20052;-66
2023/09/13 03:14:36;;;;;;;1.23;0.73;;;16.40;99.90;;;;;;5013060;28;20046;-66
2023/09/13 03:17:02;;;;;;;1.17;0.60;;;17.30;99.90;;;;;;5014575;28;20401;-66
2023/09/13 03:19:30;;;;;;;1.15;0.75;;;16.90;99.90;;;;;;5014495;28;20052;-66
2023/09/13 03:21:55;;;;;;;1.35;0.90;;;16.90;99.90;;;;;;5014480;28;20136;-66
2023/09/13 03:24:21;;;;;;;1.65;0.88;;;16.90;99.90;;;;;;5013007;28;20513;-66
2023/09/13 03:26:47;;;;;;;1.50;0.60;;;16.80;99.90;;;;;;5014283;28;20088;-66
2023/09/13 03:29:12;;;;;;;1.17;0.77;;;16.80;99.90;;;;;;5014259;28;20034;-66
2023/09/13 03:31:38;;;;;;;1.58;0.77;;;16.80;99.90;;;;;;5012731;28;20038;-65
2023/09/13 03:34:04;;;;;;;1.70;0.82;;;16.80;99.90;;;;;;5012556;28;20125;-66
2023/09/13 03:36:30;;;;;;;0.70;0.60;;;16.80;99.90;;;;;;5014204;28;20045;-66
2023/09/13 03:38:55;;;;;;;0.80;0.45;;;16.80;99.90;;;;;;5014210;28;20037;-66
2023/09/13 03:41:22;;;;;;;0.50;0.50;;;16.80;99.90;;;;;;5014049;28;20033;-66
2023/09/13 03:43:49;;;;;;;1.92;0.80;;;16.50;99.90;;;;;;5012539;28;20099;-66
2023/09/13 03:46:15;;;;;;;2.13;0.65;;;16.80;99.90;;;;;;5013742;28;20069;-66
2023/09/13 03:48:41;;;;;;;0.65;0.50;;;16.80;99.90;;;;;;5013768;28;20038;-66
2023/09/13 03:51:07;;;;;;;1.08;0.85;;;16.80;99.90;;;;;;4996271;28;20044;-66
2023/09/13 03:53:33;;;;;;;0.82;0.70;;;18.40;99.90;;;;;;5013776;28;20040;-66
2023/09/13 03:56:00;;;;;;;1.92;0.88;;;16.80;99.90;;;;;;4995636;28;20057;-62
2023/09/13 03:58:26;;;;;;;1.00;0.80;;;16.70;99.90;;;;;;5013484;28;20034;-63
2023/09/13 04:00:55;;;;;;;0.90;0.70;;;17.90;99.90;;;;;;4995954;28;20133;-62
2023/09/13 04:03:21;;;;;;;1.17;0.50;;;16.70;99.90;;;;;;5012214;28;20127;-62
2023/09/13 04:05:47;;;;;;;1.52;0.73;;;16.80;99.90;;;;;;5012061;28;20053;-62
2023/09/13 04:08:13;;;;;;;1.33;0.80;;;16.80;99.90;;;;;;5013754;28;20359;-62
2023/09/13 04:10:39;;;;;;;0.85;0.52;;;16.80;99.90;;;;;;5013610;28;20053;-62
2023/09/13 04:13:05;;;;;;;1.33;0.75;;;16.90;99.90;;;;;;5013633;28;20379;-62
2023/09/13 04:15:31;;;;;;;3.25;0.90;;;18.60;99.90;;;;;;5012300;28;20044;-63
2023/09/13 04:17:57;;;;;;;1.25;0.85;;;16.80;99.90;;;;;;5012308;28;20038;-63
2023/09/13 04:20:26;;;;;;;0.50;0.50;;;16.80;99.90;;;;;;5013514;28;20050;-63
2023/09/13 04:22:51;;;;;;;0.75;0.60;;;16.70;99.90;;;;;;5012023;28;20411;-63
2023/09/13 04:25:18;;;;;;;1.40;0.80;;;17.40;99.90;;;;;;4996175;28;20042;-62
2023/09/13 04:27:44;;;;;;;1.27;0.68;;;16.70;99.90;;;;;;5011998;28;20048;-62
2023/09/13 04:30:11;;;;;;;1.23;0.73;;;16.50;99.90;;;;;;5013497;28;20085;-62
2023/09/13 04:32:36;;;;;;;0.85;0.60;;;16.70;99.90;;;;;;5012226;28;20116;-62
2023/09/13 04:35:03;;;;;;;0.98;0.70;;;16.70;99.90;;;;;;5011989;28;20168;-62
2023/09/13 04:37:29;;;;;;;1.25;0.80;;;16.60;99.90;;;;;;5012115;28;20049;-62
2023/09/13 04:39:54;;;;;;;1.65;0.63;;;16.60;99.90;;;;;;5013125;28;20034;-63
2023/09/13 04:42:20;;;;;;;2.17;1.10;;;16.50;99.90;;;;;;5011774;28;20121;-62
2023/09/13 04:44:45;;;;;;;1.58;0.93;;;17.90;99.90;;;;;;4995435;28;20486;-62
2023/09/13 04:47:11;;;;;;;0.90;0.50;;;16.40;99.90;;;;;;5015527;28;20041;-62
2023/09/13 04:49:37;;;;;;;1.08;0.70;;;16.70;99.90;;;;;;5015630;28;20037;-61
2023/09/13 04:52:03;;;;;;;0.90;0.60;;;16.30;99.90;;;;;;5016065;28;20394;-62
2023/09/13 04:54:29;;;;;;;1.05;0.80;;;16.30;99.90;;;;;;4999248;28;20392;-63
2023/09/13 04:56:55;;;;;;;0.50;0.47;;;16.20;99.90;;;;;;5017035;28;20038;-62
2023/09/13 04:59:25;;;;;;;1.35;0.57;;;16.20;99.90;;;;;;5015334;28;20041;-63
2023/09/13 05:01:50;;;;;;;2.15;0.90;;;16.20;99.90;;;;;;5016825;28;20100;-63
2023/09/13 05:04:16;;;;;;;0.70;0.50;;;16.10;99.90;;;;;;5015229;28;20049;-62
2023/09/13 05:06:42;;;;;;;1.67;1.02;;;16.20;99.90;;;;;;5016974;28;20049;-66
2023/09/13 05:09:07;;;;;;;0.80;0.60;;;16.10;99.90;;;;;;5016578;28;20038;-65
2023/09/13 05:11:33;;;;;;;0.60;0.50;;;16.00;99.90;;;;;;5016843;28;20092;-65
2023/09/13 05:14:12;;;;;;;1.33;0.82;;;16.00;99.90;;;;;;5016758;28;20042;-65
2023/09/13 05:16:37;;;;;;;0.82;0.52;;;16.00;99.90;;;;;;5016493;28;20042;-65
2023/09/13 05:19:03;;;;;;;1.70;0.75;;;16.00;99.90;;;;;;4998770;28;20042;-65
2023/09/13 05:21:29;;;;;;;1.05;0.77;;;16.00;99.90;;;;;;5016628;28;20129;-66
2023/09/13 05:23:54;;;;;;;1.33;0.82;;;16.00;99.90;;;;;;5016457;28;20041;-66
2023/09/13 05:26:20;;;;;;;1.20;0.80;;;15.80;99.90;;;;;;5015378;28;20042;-67
2023/09/13 05:28:46;;;;;;;1.52;0.75;;;15.90;99.90;;;;;;5016552;28;20200;-66
2023/09/13 05:31:11;;;;;;;1.30;0.93;;;15.80;99.90;;;;;;5016550;28;20038;-65
2023/09/13 05:33:37;;;;;;;1.20;0.77;;;15.70;99.90;;;;;;5016500;28;20122;-66
2023/09/13 05:36:13;;;;;;;1.60;0.60;;;15.70;99.90;;;;;;5016496;28;20049;-65
2023/09/13 05:38:39;;;;;;;0.50;0.50;;;15.60;99.90;;;;;;5015224;28;20042;-65
2023/09/13 05:41:11;;;;;;;1.30;0.88;;;15.60;99.90;;;;;;5016486;28;20046;-64
2023/09/13 05:43:42;;;;;;;1.40;0.77;;;15.70;99.90;;;;;;5014780;28;20050;-65
2023/09/13 05:46:08;;;;;;;;;;;15.50;99.90;;;;;;4999199;28;20073;-67
2023/09/13 05:48:40;;;;;;;0.60;0.60;;;15.40;99.90;;;;;;5016260;28;19944;-65
2023/09/13 05:51:06;;;;;;;0.65;0.65;;;15.40;99.90;;;;;;5014706;28;20053;-66
2023/09/13 05:53:32;;;;;;;0.88;0.70;;;15.40;99.90;;;;;;5014652;28;20497;-66
2023/09/13 05:55:58;;;;;;;0.63;0.45;;;15.30;99.90;;;;;;5014532;28;20053;-66
2023/09/13 05:58:23;;;;;;;0.80;0.70;;;15.30;99.90;;;;;;5014538;28;20100;-66
2023/09/13 06:00:50;;;;;;;1.45;0.80;;;15.30;99.90;;;;;;5014616;28;20077;-66
2023/09/13 06:03:17;;;;;;;1.30;0.73;;;15.20;99.90;;;;;;5015780;28;20141;-67
2023/09/13 06:05:50;;;;;;;1.50;0.80;;;15.20;99.90;;;;;;5015599;28;20046;-66
2023/09/13 06:08:17;;;;;;;1.05;0.75;;;15.20;99.90;;;;;;5014361;28;20041;-67
2023/09/13 06:10:43;;;;;;;1.23;0.98;;;15.10;99.90;;;;;;5015824;28;20037;-65
2023/09/13 06:13:09;;;;;;;1.08;0.77;;;15.40;99.90;;;;;;5014497;28;20585;-66
2023/09/13 06:15:34;;;;;;;0.75;0.75;;;14.90;99.90;;;;;;5015531;28;20046;-66
2023/09/13 06:18:04;;;;;;;1.00;0.90;;;14.90;99.90;;;;;;5015438;28;20038;-67
2023/09/13 06:20:29;;;;;;;1.40;0.90;;;14.90;99.90;;;;;;5015591;28;20486;-67
2023/09/13 06:22:55;;;;;;;0.88;0.70;;;14.80;99.90;;;;;;5014042;28;20045;-66
2023/09/13 06:25:21;;;;;;;2.65;1.20;;;14.80;99.90;;;;;;5015248;28;20046;-66
2023/09/13 06:27:47;;;;;;;1.35;1.25;;;14.80;99.90;;;;;;5015579;28;20104;-66
2023/09/13 06:30:13;;;;;;;1.30;0.80;;;14.70;99.90;;;;;;5015514;28;20514;-66
2023/09/13 06:32:39;;;;;;;3.10;1.08;;;14.70;99.90;;;;;;5015167;28;20044;-66
2023/09/13 06:35:05;;;;;;;0.82;0.77;;;14.90;99.90;;;;;;5015432;28;20038;-66
2023/09/13 06:37:31;;;;;;;1.80;0.90;;;14.60;99.90;;;;;;5015285;28;20041;-66
2023/09/13 06:39:57;;;;;;;0.68;0.55;;;14.60;99.90;;;;;;5013817;28;20502;-67
2023/09/13 06:42:22;;;;;;;0.90;0.55;;;14.60;99.90;;;;;;5015191;28;20049;-67
2023/09/13 06:44:48;;;;;;;1.23;1.00;;;14.60;99.90;;;;;;5013715;28;20038;-66
2023/09/13 06:47:14;;;;;;;1.40;0.75;;;14.60;99.90;;;;;;5015154;28;20091;-67
2023/09/13 06:49:39;;;;;;;1.77;0.80;;;14.60;99.90;;;;;;5015127;28;20043;-66
2023/09/13 06:52:05;;;;;;;1.63;0.80;;;14.60;99.90;;;;;;5013632;28;20045;-66
2023/09/13 06:54:31;;;;;;;1.33;0.90;;;14.60;99.90;;;;;;5013809;28;20401;-65
2023/09/13 06:56:56;;;;;;;1.63;1.08;;;14.60;99.90;;;;;;5015016;28;20038;-67
2023/09/13 06:59:24;;;;;;;1.27;0.70;;;14.10;99.90;;;;;;5014883;28;20041;-66
2023/09/13 07:01:50;;;;;;;1.30;0.70;;;14.60;99.90;;;;;;5013584;28;20049;-66
2023/09/13 07:04:17;;;;;;;1.08;0.85;;;14.70;99.90;;;;;;5013239;28;20050;-66
2023/09/13 07:06:43;;;;;;;2.33;1.02;;;14.50;99.90;;;;;;5014725;28;20046;-65
2023/09/13 07:09:09;;;;;;;0.82;0.80;;;14.70;99.90;;;;;;5014303;28;20144;-66
2023/09/13 07:11:35;;;;;;;1.17;0.80;;;14.70;99.90;;;;;;4996908;28;20398;-66
2023/09/13 07:14:01;;;;;;;2.05;1.00;;;14.80;99.90;;;;;;5014452;28;20080;-66
2023/09/13 07:16:26;;;;;;;2.13;1.00;;;14.70;99.90;;;;;;5014712;28;20042;-66
2023/09/13 07:18:54;;;;;;;1.00;0.70;;;14.70;99.90;;;;;;5014553;28;20490;-66
2023/09/13 07:21:20;;;;;;;1.38;1.00;;;14.70;99.90;;;;;;5013239;28;20053;-66
2023/09/13 07:23:45;;;;;;;1.15;0.85;;;14.70;99.90;;;;;;5013014;28;20164;-67
2023/09/13 07:26:11;;;;;;;1.38;0.70;;;14.70;99.90;;;;;;5014137;28;20427;-67
2023/09/13 07:28:37;;;;;;;1.70;0.88;;;14.90;99.90;;;;;;5014396;28;20046;-66
2023/09/13 07:31:07;;;;;;;1.85;1.00;;;14.70;99.90;;;;;;5013019;28;20494;-67
2023/09/13 07:33:33;;;;;;;0.95;0.80;;;14.70;99.90;;;;;;5012846;28;20103;-68
2023/09/13 07:35:59;;;;;;;1.23;0.68;;;14.80;99.90;;;;;;5014252;28;20041;-68
2023/09/13 07:38:24;;;;;;;2.22;1.15;;;14.30;99.90;;;;;;5012912;28;20505;-67
2023/09/13 07:40:50;;;;;;;0.85;0.82;;;16.60;99.90;;;;;;5014178;28;20041;-67
2023/09/13 07:43:16;;;;;;;1.65;1.33;;;14.90;99.90;;;;;;5014167;28;20541;-67
2023/09/13 07:45:42;;;;;;;1.63;1.10;;;14.90;99.90;;;;;;5012683;28;20042;-66
2023/09/13 07:48:08;;;;;;;2.75;1.23;;;14.80;99.90;;;;;;5012636;28;20073;-67
2023/09/13 07:50:40;;;;;;;2.10;1.23;;;15.00;99.90;;;;;;5014002;28;20037;-66
2023/09/13 07:53:06;;;;;;;1.50;1.23;;;15.10;99.90;;;;;;5013725;28;20061;-66
2023/09/13 07:55:32;;;;;;;1.33;1.10;;;14.50;99.90;;;;;;5013908;28;20443;-67
2023/09/13 07:57:58;;;;;;;1.75;1.20;;;15.20;99.90;;;;;;5013850;28;20072;-67
2023/09/13 08:00:23;;;;;;;1.00;0.88;;;15.20;99.90;;;;;;5013860;28;20037;-67
2023/09/13 08:02:49;;;;;;;1.42;0.95;;;15.20;99.90;;;;;;5013533;28;20566;-67
2023/09/13 08:05:16;;;;;;;1.63;1.20;;;15.20;99.90;;;;;;5013768;28;20405;-67
2023/09/13 08:07:43;;;;;;;2.67;1.35;;;15.20;99.90;;;;;;5013658;28;20037;-67
2023/09/13 08:10:09;;;;;;;2.08;1.00;;;15.30;99.90;;;;;;5013499;28;20054;-67
2023/09/13 08:12:34;;;;;;;1.00;0.77;;;15.40;99.90;;;;;;5012187;28;20125;-66
2023/09/13 08:15:00;;;;;;;1.50;0.73;;;15.30;99.90;;;;;;5013380;28;20041;-67
2023/09/13 08:17:25;;;;;;;1.55;1.10;;;15.30;99.90;;;;;;5013547;28;20091;-67
2023/09/13 08:19:51;;;;;;;1.60;0.82;;;15.40;99.90;;;;;;5011476;28;20045;-67
2023/09/13 08:22:17;;;;;;;1.30;0.93;;;15.40;99.90;;;;;;5011984;28;20045;-66
2023/09/13 08:24:43;;;;;;;2.72;1.13;;;15.40;99.90;;;;;;5013566;28;20061;-67
2023/09/13 08:27:08;;;;;;;2.40;0.80;;;15.40;99.90;;;;;;5013239;28;20485;-70
2023/09/13 08:29:35;;;;;;;2.40;0.93;;;15.40;99.90;;;;;;5013180;28;20038;-71
2023/09/13 08:32:00;;;;;;;1.88;1.05;;;15.40;99.90;;;;;;5011880;28;20045;-70
2023/09/13 08:34:26;;;;;;;1.60;0.80;;;15.40;99.90;;;;;;5013390;28;20038;-69
2023/09/13 08:36:56;;;;;;;1.25;0.70;;;15.50;99.90;;;;;;5011924;28;20456;-65
2023/09/13 08:39:22;;;;;;;2.20;1.02;;;15.50;99.90;;;;;;5013350;28;20046;-67
2023/09/13 08:41:53;;;;;;;1.38;0.63;;;15.60;99.90;;;;;;5013061;28;20046;-65
2023/09/13 08:44:20;;;;;;;1.95;0.70;;;15.60;99.90;;;;;;5013395;28;20498;-65
2023/09/13 08:46:48;;;;;;;1.10;0.70;;;15.70;99.90;;;;;;5011992;28;20082;-65
2023/09/13 08:49:16;;;;;;;0.93;0.80;;;15.70;99.90;;;;;;5013287;28;20120;-65
2023/09/13 08:51:45;;;;;;;1.77;1.00;;;15.70;99.90;;;;;;5013190;28;20504;-65
2023/09/13 08:54:11;;;;;;;1.75;1.05;;;15.80;99.90;;;;;;5013223;28;20087;-65
2023/09/13 08:56:42;;;;;;;1.15;0.88;;;15.90;99.90;;;;;;5011929;28;20046;-65
2023/09/13 08:59:11;;;;;;;1.70;1.17;;;15.90;99.90;;;;;;5013266;28;20037;-65
2023/09/13 09:01:38;;;;;;;0.75;0.63;;;15.90;99.90;;;;;;5013063;28;20050;-65
2023/09/13 09:04:04;;;;;;;1.23;0.60;;;16.10;99.90;;;;;;5011409;28;20050;-65
2023/09/13 09:06:31;;;;;;;2.05;0.98;;;16.20;99.90;;;;;;5012903;28;20103;-66
2023/09/13 09:08:57;;;;;;;0.88;0.70;;;16.20;99.90;;;;;;5012826;28;20042;-66
2023/09/13 09:11:26;;;;;;;0.60;0.50;;;16.40;99.90;;;;;;5013025;28;20049;-65
2023/09/13 09:13:53;;;;;;;1.52;0.93;;;16.40;99.90;;;;;;5013017;28;20046;-65
2023/09/13 09:16:21;;;;;;;2.05;0.88;;;16.50;99.90;;;;;;5013004;28;20573;-65
2023/09/13 09:18:48;;;;;;;2.28;1.02;;;16.70;99.90;;;;;;5013059;28;20073;-65
2023/09/13 09:21:14;;;;;;;1.13;0.82;;;16.50;99.90;;;;;;5012941;28;20046;-65
2023/09/13 09:23:41;;;;;;;1.27;0.90;;;16.40;99.90;;;;;;5012605;28;20103;-66
2023/09/13 09:26:07;;;;;;;1.10;0.90;;;16.50;99.90;;;;;;5012844;28;20053;-66
2023/09/13 09:28:34;;;;;;;2.03;0.88;;;16.50;99.90;;;;;;5011532;28;20482;-66
2023/09/13 09:31:02;;;;;;;1.83;0.80;;;16.50;99.90;;;;;;5011313;28;20042;-66
2023/09/13 09:33:37;;;;;;;2.05;0.93;;;16.70;99.90;;;;;;5016593;28;20104;-65
2023/09/13 09:36:08;;;;;;;0.90;0.70;;;16.80;99.90;;;;;;5015359;28;20490;-65
2023/09/13 09:38:35;;;;;;;1.13;0.60;;;16.90;99.90;;;;;;5016252;28;20053;-66
2023/09/13 09:41:02;;;;;;;2.30;1.40;;;16.90;99.90;;;;;;5016432;28;20116;-67
2023/09/13 09:43:28;;;;;;;1.05;0.73;;;16.90;99.90;;;;;;5016436;28;20100;-66
2023/09/13 09:45:54;;;;;;;2.53;0.75;;;16.80;99.90;;;;;;5015984;28;20045;-66
2023/09/13 09:48:20;;;;;;;1.48;0.82;;;17.00;99.90;;;;;;5016375;28;20033;-67
2023/09/13 09:50:47;;;;;;;1.80;0.88;;;17.20;99.90;;;;;;5016267;28;20038;-66
2023/09/13 09:53:17;;;;;;;2.92;1.48;;;17.20;99.90;;;;;;5016201;28;20037;-66
2023/09/13 09:55:44;;;;;;;2.05;1.15;;;17.30;99.90;;;;;;5014685;28;20057;-66
2023/09/13 09:58:10;;;;;;;2.20;0.95;;;17.70;99.90;;;;;;5016128;28;20050;-66
2023/09/13 10:00:52;;;;;;;0.93;0.77;;;17.40;99.90;;;;;;5014511;28;20081;-66
2023/09/13 10:03:18;;;;;;;0.70;0.70;;;17.30;99.90;;;;;;5014334;28;20057;-66
2023/09/13 10:05:56;;;;;;;1.33;0.65;;;18.10;99.90;;;;;;5014690;28;20489;-66
2023/09/13 10:08:39;;;;;;;0.85;0.60;;;17.80;99.90;;;;;;5015528;28;20085;-66
2023/09/13 10:11:10;;;;;;;1.05;0.80;;;17.70;99.90;;;;;;5014580;28;20046;-66
2023/09/13 10:13:41;;;;;;;0.75;0.65;;;16.80;99.90;;;;;;5015801;28;20034;-66
2023/09/13 10:16:14;;;;;;;0.95;0.57;;;16.60;99.90;;;;;;5015488;28;20069;-65
2023/09/13 10:18:48;;;;;;;0.65;0.65;;;16.50;99.90;;;;;;5014462;28;20082;-66
2023/09/13 10:21:24;;;;;;;1.42;0.80;;;16.30;99.90;;;;;;5014169;28;20042;-65
2023/09/13 10:23:56;;;;;;;1.05;0.80;;;16.20;99.90;;;;;;5015590;28;20046;-65
2023/09/13 10:26:25;;;;;;;0.60;0.60;;;15.90;99.90;;;;;;5015500;28;20089;-65
2023/09/13 10:28:54;;;;;;;1.35;0.80;;;15.80;99.90;;;;;;5015561;28;20116;-65
2023/09/13 10:31:30;;;;;;;1.10;0.70;;;15.80;99.90;;;;;;5015522;28;20537;-65
2023/09/13 10:34:04;;;;;;;1.52;0.77;;;15.90;99.90;;;;;;5015517;28;20041;-64
2023/09/13 10:36:37;;;;;;;1.08;0.90;;;15.90;99.90;;;;;;5015401;28;20184;-65
2023/09/13 10:39:17;;;;;;;1.20;0.70;;;16.50;99.90;;;;;;5015353;28;20125;-65
2023/09/13 10:42:01;;;;;;;0.85;0.85;;;16.20;99.90;;;;;;5014958;28;20042;-65
2023/09/13 10:44:27;;;;;;;2.35;0.93;;;16.70;99.90;;;;;;5012955;28;20120;-65
2023/09/13 10:46:54;;;;;;;1.73;1.20;;;16.50;99.90;;;;;;5015255;28;20185;-65
2023/09/13 10:49:20;;;;;;;1.48;0.70;;;16.60;99.90;;;;;;5015105;28;20397;-65
2023/09/13 10:51:49;;;;;;;1.48;0.82;;;16.60;99.90;;;;;;5013583;28;20037;-65
2023/09/13 10:54:18;;;;;;;0.98;0.70;;;16.90;99.90;;;;;;5014710;28;20053;-65
2023/09/13 10:56:44;;;;;;;1.13;1.02;;;17.00;99.90;;;;;;5015061;28;20041;-65
2023/09/13 10:59:12;;;;;;;2.00;0.95;;;17.10;99.90;;;;;;5013611;28;20042;-65
2023/09/13 11:01:45;;;;;;;1.27;0.70;;;17.30;99.90;;;;;;5014517;28;20045;-65
2023/09/13 11:04:18;;;;;;;1.10;1.00;;;17.50;99.90;;;;;;5014446;28;20050;-65
2023/09/13 11:06:45;;;;;;;1.88;0.80;;;17.70;99.90;;;;;;5014751;28;20042;-65
2023/09/13 11:09:12;;;;;;;0.63;0.60;;;17.80;99.90;;;;;;5014790;28;20052;-65
2023/09/13 11:11:48;;;;;;;1.20;0.80;;;17.70;99.90;;;;;;5013283;28;20041;-66
2023/09/13 11:14:18;;;;;;;2.95;1.00;;;17.60;99.90;;;;;;5014591;28;20117;-65
2023/09/13 11:16:46;;;;;;;1.50;0.80;;;17.60;99.90;;;;;;5013088;28;20050;-65
2023/09/13 11:19:14;;;;;;;0.80;0.75;;;17.60;99.90;;;;;;5014444;28;20048;-66
2023/09/13 11:21:59;;;;;;;1.40;0.73;;;17.70;99.90;;;;;;5012899;28;20089;-66
2023/09/13 11:24:43;;;;;;;1.48;0.80;;;17.80;99.90;;;;;;5014062;28;20129;-66
2023/09/13 11:27:17;;;;;;;1.65;0.77;;;18.00;99.90;;;;;;5012745;28;20049;-66
2023/09/13 11:29:45;;;;;;;0.60;0.60;;;18.00;99.90;;;;;;5012684;28;20089;-66
2023/09/13 11:32:21;;;;;;;2.15;0.90;;;18.10;99.90;;;;;;5014245;28;20046;-65
2023/09/13 11:34:56;;;;;;;1.13;0.50;;;18.10;99.90;;;;;;5013014;28;20042;-65
2023/09/13 11:37:23;;;;;;;1.00;0.70;;;18.10;99.90;;;;;;5013778;28;20121;-65
2023/09/13 11:40:06;;;;;;;0.60;0.60;;;18.20;99.90;;;;;;5014148;28;20049;-65
2023/09/13 11:42:32;;;;;;;1.15;0.85;;;18.20;99.90;;;;;;5012760;28;20553;-66
2023/09/13 11:44:58;;;;;;;1.30;1.00;;;18.20;99.90;;;;;;5013804;28;20117;-66
2023/09/13 11:47:24;;;;;;;1.10;0.80;;;18.20;99.60;;;;;;5013891;28;20069;-68
2023/09/13 11:49:55;;;;;;;0.80;0.70;;;18.20;98.40;;;;;;5013960;28;20041;-67
2023/09/13 11:52:22;;;;;;;1.25;0.93;;;18.20;96.80;;;;;;5012730;28;20052;-67
2023/09/13 11:54:57;;;;;;;1.95;0.95;;;18.20;98.40;;;;;;5012194;28;20045;-67
2023/09/13 11:57:23;;;;;;;1.33;0.88;;;18.30;95.40;;;;;;5012430;28;20085;-67
2023/09/13 12:00:03;;;;;;;0.88;0.80;;;18.20;98.00;;;;;;5012244;28;20078;-67
2023/09/13 12:02:30;;;;;;;1.13;0.80;;;18.40;96.00;;;;;;5012044;28;20108;-67
2023/09/13 12:04:56;;;;;;;0.80;0.80;;;18.50;99.20;;;;;;5013707;28;20062;-67
2023/09/13 12:07:36;;;;;;;0.68;0.60;;;18.50;98.30;;;;;;5013677;28;20042;-67
2023/09/13 12:10:03;;;;;;;0.80;0.60;;;18.50;96.90;;;;;;5013189;28;20034;-67
2023/09/13 12:12:39;;;;;;;1.13;0.75;;;18.10;98.50;;;;;;5012059;28;20125;-67
2023/09/13 12:15:05;;;;;;;1.20;1.00;;;18.70;96.80;;;;;;5012183;28;20046;-66
2023/09/13 12:17:39;;;;;;;0.73;0.73;;;18.80;96.70;;;;;;4995871;28;20045;-66
2023/09/13 12:20:11;;;;;;;1.13;0.90;;;18.70;84.20;;;;;;5012072;28;20081;-67
2023/09/13 12:22:48;;;;;;;0.60;0.60;;;18.60;54.00;;;;;;5011931;28;20041;-67
2023/09/13 12:25:14;;;;;;;0.88;0.80;;;18.60;73.60;;;;;;5013036;28;20034;-66
2023/09/13 12:27:40;;;;;;;1.00;0.85;;;18.50;72.00;;;;;;5012934;28;20486;-67
2023/09/13 12:30:07;;;;;;;1.40;0.70;;;18.40;69.80;;;;;;5011868;28;20042;-67
2023/09/13 12:32:33;;;;;;;0.98;0.70;;;18.50;70.70;;;;;;5013024;28;20116;-67
2023/09/13 12:35:02;;;;;;;1.02;0.70;;;18.50;68.10;;;;;;5013352;28;20409;-66
2023/09/13 12:37:28;;;;;;;1.15;0.73;;;18.40;70.40;;;;;;5011789;28;20049;-66
2023/09/13 12:39:55;;;;;;;2.03;0.73;;;18.50;70.40;;;;;;5013024;28;20042;-67
2023/09/13 12:42:20;;;;;;;1.50;1.02;;;18.50;68.60;;;;;;5011695;28;20049;-66
2023/09/13 12:44:46;;;;;;;1.67;0.70;;;18.60;68.60;;;;;;4995530;28;20042;-66
2023/09/13 12:47:16;;;;;;;1.33;0.75;;;18.60;67.90;;;;;;5013122;28;20140;-66
2023/09/13 12:49:45;;;;;;;1.13;0.60;;;18.60;68.90;;;;;;5012845;28;20413;-66
2023/09/13 12:52:10;;;;;;;0.85;0.60;;;18.50;58.10;;;;;;5013177;28;20042;-66